Time;durP1;ratioP1;P1;durP2;ratioP2;P2;SDS_P1;SDS_P2;PMS_P1;PMS_P2;Temp;Humidity;BMP_temperature;BMP_pressure;BME280_temperature;BME280_humidity;BME280_pressure;Samples;Min_cycle;Max_cycle;Signal;HPM_P1;HPM_P2
2021/12/29 00:00:14;;;;;;;127.40;27.97;;;;;;;9.31;100.00;98741.78;4950131;29;20190;-87
2021/12/29 00:02:41;;;;;;;125.37;26.57;;;;;;;8.58;100.00;98624.53;4950562;29;20161;-85
2021/12/29 00:05:08;;;;;;;105.43;25.10;;;;;;;7.19;100.00;98408.13;4950240;29;20186;-85
2021/12/29 00:07:35;;;;;;;111.43;26.33;;;;;;;7.74;100.00;98486.72;4949863;29;20260;-85
2021/12/29 00:10:03;;;;;;;103.13;26.97;;;;;;;9.26;100.00;98739.06;4950027;29;20205;-86
2021/12/29 00:12:28;;;;;;;112.33;24.97;;;;;;;9.20;100.00;98741.34;4948692;29;20209;-86
2021/12/29 00:14:55;;;;;;;111.10;25.17;;;;;;;9.20;100.00;98748.94;4934773;29;20192;-85
2021/12/29 00:17:20;;;;;;;122.53;25.60;;;;;;;6.97;100.00;98390.44;4951581;29;20197;-85
2021/12/29 00:19:46;;;;;;;108.30;24.63;;;;;;;9.15;100.00;98747.91;4931108;29;20177;-87
2021/12/29 00:22:13;;;;;;;103.57;23.90;;;;;;;8.30;100.00;98630.13;4946214;29;20260;-87
2021/12/29 00:24:40;;;;;;;106.70;24.60;;;;;;;8.31;100.00;98621.78;4932804;29;20189;-86
2021/12/29 00:27:07;;;;;;;113.00;25.03;;;;;;;7.90;100.00;98583.94;4947837;29;20185;-85
2021/12/29 00:29:33;;;;;;;106.10;24.50;;;;;;;8.89;100.00;98731.75;4916924;29;20257;-86
2021/12/29 00:32:00;;;;;;;82.53;22.67;;;;;;;8.49;100.00;98667.91;4915985;29;20300;-87
2021/12/29 00:34:25;;;;;;;92.03;22.53;;;;;;;7.17;100.00;98446.59;4948682;29;20192;-87
2021/12/29 00:36:50;;;;;;;85.53;23.13;;;;;;;8.30;100.00;98628.47;4951402;29;20189;-87
2021/12/29 00:39:16;;;;;;;75.93;22.13;;;;;;;7.14;100.00;98454.91;4932474;29;20189;-87
2021/12/29 00:41:42;;;;;;;84.27;21.67;;;;;;;7.26;100.00;98470.47;4950427;29;20173;-86
2021/12/29 00:44:08;;;;;;;80.13;22.10;;;;;;;6.75;100.00;98357.63;4939060;29;20177;-87
2021/12/29 00:46:39;;;;;;;80.10;21.27;;;;;;;6.58;100.00;98316.69;4934975;29;20200;-86
2021/12/29 00:49:06;;;;;;;70.30;20.77;;;;;;;7.72;100.00;98532.00;4952015;29;20166;-87
2021/12/29 00:51:31;;;;;;;58.97;18.67;;;;;;;8.15;100.00;98582.47;4919036;29;20212;-86
2021/12/29 00:53:57;;;;;;;55.17;17.30;;;;;;;6.16;100.00;98284.72;4954098;29;20177;-85
2021/12/29 00:56:24;;;;;;;62.03;17.70;;;;;;;8.26;100.00;98671.13;4954328;29;20181;-85
2021/12/29 00:58:49;;;;;;;62.00;18.10;;;;;;;6.15;100.00;98290.56;4931506;29;20177;-87
2021/12/29 01:01:15;;;;;;;59.73;18.00;;;;;;;6.80;100.00;98424.06;4948644;29;20176;-86
2021/12/29 01:03:43;;;;;;;57.37;18.53;;;;;;;6.63;100.00;98382.25;4948825;29;20172;-88
2021/12/29 01:06:09;;;;;;;56.13;18.23;;;;;;;8.63;100.00;98711.31;4948724;29;20154;-86
2021/12/29 01:08:36;;;;;;;60.53;19.13;;;;;;;5.26;100.00;98160.28;4948698;29;20166;-86
2021/12/29 01:11:04;;;;;;;61.47;19.27;;;;;;;7.61;100.00;98530.69;4948860;29;20161;-86
2021/12/29 01:13:34;;;;;;;57.67;18.23;;;;;;;7.77;100.00;98562.44;4947549;29;20192;-87
2021/12/29 01:18:31;;;;;;;66.83;19.10;;;;;;;8.99;100.00;98739.66;4949263;29;20166;-86
2021/12/29 01:20:57;;;;;;;65.63;19.27;;;;;;;8.83;100.00;98733.16;4948778;29;20205;-85
2021/12/29 01:23:23;;;;;;;75.33;20.47;;;;;;;8.88;100.00;98734.22;4948739;29;20196;-87
2021/12/29 01:25:49;;;;;;;85.40;21.17;;;;;;;8.78;100.00;98743.09;4947474;29;20314;-86
2021/12/29 01:28:15;;;;;;;74.27;20.57;;;;;;;8.97;100.00;98743.81;4947987;29;20185;-87
2021/12/29 01:30:41;;;;;;;66.47;20.83;;;;;;;7.04;100.00;98422.56;4930597;29;20181;-86
2021/12/29 01:33:08;;;;;;;74.70;21.57;;;;;;;8.85;100.00;98732.44;4930057;29;20205;-86
2021/12/29 01:35:37;;;;;;;67.57;19.70;;;;;;;8.81;100.00;98727.22;4940031;29;20206;-87
2021/12/29 01:38:05;;;;;;;71.97;20.67;;;;;;;7.02;100.00;98470.34;4906120;29;20204;-85
2021/12/29 01:40:32;;;;;;;70.67;21.77;;;;;;;8.79;100.00;98722.09;4938371;29;20240;-87
2021/12/29 01:42:58;;;;;;;63.77;21.17;;;;;;;6.86;100.00;98406.72;4946710;29;20191;-86
2021/12/29 01:45:24;;;;;;;63.90;19.87;;;;;;;8.12;100.00;98619.28;4947206;29;20212;-84
2021/12/29 01:47:50;;;;;;;63.73;20.57;;;;;;;8.88;100.00;98726.63;4941337;29;20317;-88
2021/12/29 01:50:17;;;;;;;70.07;21.27;;;;;;;8.97;100.00;98727.00;4936543;29;20252;-85
2021/12/29 01:52:50;;;;;;;61.03;20.27;;;;;;;6.94;100.00;98406.25;4920811;29;20204;-88
2021/12/29 01:55:17;;;;;;;63.37;20.03;;;;;;;7.67;100.00;98490.66;4936992;29;20196;-86
2021/12/29 01:57:43;;;;;;;56.23;19.30;;;;;;;8.90;100.00;98725.91;4936919;29;20194;-87
2021/12/29 02:00:15;;;;;;;52.03;19.23;;;;;;;8.38;100.00;98646.44;4922206;29;20217;-87
2021/12/29 02:02:42;;;;;;;56.80;19.17;;;;;;;8.74;100.00;98708.44;4938180;29;20228;-87
2021/12/29 02:05:09;;;;;;;55.77;19.17;;;;;;;8.66;100.00;98707.28;4920067;29;20320;-86
2021/12/29 02:07:35;;;;;;;54.23;19.13;;;;;;;8.63;100.00;98711.31;4936976;29;20777;-85
2021/12/29 02:10:00;;;;;;;59.17;20.13;;;;;;;8.33;100.00;98678.16;4935562;29;20198;-85
2021/12/29 02:12:28;;;;;;;55.73;18.90;;;;;;;8.19;100.00;98659.06;4903805;29;20196;-86
2021/12/29 02:14:53;;;;;;;52.23;19.03;;;;;;;7.54;100.00;98528.75;4919660;29;20287;-86
2021/12/29 02:17:18;;;;;;;52.60;18.27;;;;;;;8.63;100.00;98707.16;4937228;29;20173;-86
2021/12/29 02:19:47;;;;;;;53.77;18.13;;;;;;;5.98;100.00;98266.38;4936299;29;20196;-86
2021/12/29 02:22:30;;;;;;;50.60;17.90;;;;;;;8.48;100.00;98685.50;4937303;29;20228;-85
2021/12/29 02:25:07;;;;;;;43.43;17.93;;;;;;;8.53;100.00;98706.72;4921204;29;20559;-86
2021/12/29 02:27:36;;;;;;;54.40;19.53;;;;;;;8.32;100.00;98663.84;4921131;29;20331;-86
2021/12/29 02:30:03;;;;;;;52.07;18.77;;;;;;;7.51;100.00;98543.72;4938527;29;20165;-87
2021/12/29 02:32:29;;;;;;;48.00;18.93;;;;;;;5.82;100.00;98260.63;4921932;29;20275;-86
2021/12/29 02:34:55;;;;;;;48.67;17.37;;;;;;;8.05;100.00;98650.06;4923152;29;20237;-87
2021/12/29 02:37:22;;;;;;;44.17;16.27;;;;;;;6.41;100.00;98388.88;4940183;29;20189;-87
2021/12/29 02:39:49;;;;;;;39.57;15.10;;;;;;;6.36;100.00;98361.84;4939061;29;20585;-86
2021/12/29 02:42:15;;;;;;;41.23;15.60;;;;;;;7.68;100.00;98603.22;4939618;29;20177;-88
2021/12/29 02:44:42;;;;;;;42.53;14.77;;;;;;;8.24;100.00;98680.31;4935360;29;20183;-89
2021/12/29 02:47:09;;;;;;;38.67;14.83;;;;;;;8.36;100.00;98708.56;4934792;29;20192;-88
2021/12/29 02:49:34;;;;;;;34.40;13.20;;;;;;;6.34;100.00;98384.41;4919625;29;20184;-86
2021/12/29 02:52:00;;;;;;;33.90;13.30;;;;;;;6.67;100.00;98429.38;4936249;29;20217;-86
2021/12/29 02:54:25;;;;;;;36.97;13.30;;;;;;;5.90;100.00;98286.13;4918740;29;20251;-87
2021/12/29 02:56:56;;;;;;;32.50;13.07;;;;;;;8.31;100.00;98699.94;4939051;29;20169;-87
2021/12/29 02:59:24;;;;;;;33.03;12.50;;;;;;;7.56;100.00;98587.56;4936289;29;20170;-87
2021/12/29 03:01:51;;;;;;;33.20;13.27;;;;;;;8.31;100.00;98705.00;4935817;29;20196;-86
2021/12/29 03:04:17;;;;;;;31.60;13.00;;;;;;;7.64;100.00;98581.19;4934839;29;20189;-86
2021/12/29 03:06:42;;;;;;;32.70;13.57;;;;;;;8.32;100.00;98711.78;4934974;29;20654;-86
2021/12/29 03:09:10;;;;;;;31.23;13.40;;;;;;;6.81;100.00;98489.50;4936311;29;20264;-86
2021/12/29 03:11:36;;;;;;;37.80;15.37;;;;;;;8.25;100.00;98702.19;4936208;29;20288;-87
2021/12/29 03:14:02;;;;;;;33.40;13.60;;;;;;;6.50;100.00;98386.78;4936332;29;20169;-85
2021/12/29 03:16:34;;;;;;;37.10;14.50;;;;;;;6.42;100.00;98399.81;4936339;29;20166;-86
2021/12/29 03:19:02;;;;;;;33.97;14.07;;;;;;;6.80;100.00;98440.03;4934819;29;20184;-86
2021/12/29 03:21:28;;;;;;;29.33;13.40;;;;;;;6.65;100.00;98411.69;4935940;29;20205;-87
2021/12/29 03:23:54;;;;;;;36.83;14.17;;;;;;;7.07;100.00;98468.88;4937321;29;20872;-86
2021/12/29 03:26:19;;;;;;;31.97;13.90;;;;;;;6.24;100.00;98334.50;4940436;29;20173;-86
2021/12/29 03:28:46;;;;;;;31.43;13.43;;;;;;;8.58;100.00;98707.75;4924629;29;20177;-86
2021/12/29 03:31:14;;;;;;;27.20;12.67;;;;;;;7.92;100.00;98592.41;4907701;29;20182;-86
2021/12/29 03:33:41;;;;;;;26.57;12.23;;;;;;;8.05;100.00;98632.41;4922584;29;20196;-86
2021/12/29 03:36:07;;;;;;;24.00;11.43;;;;;;;8.48;100.00;98705.69;4939873;29;20165;-85
2021/12/29 03:38:36;;;;;;;25.93;11.63;;;;;;;8.56;100.00;98729.56;4939729;29;20174;-86
2021/12/29 03:41:04;;;;;;;19.13;9.77;;;;;;;7.07;100.00;98465.47;4942124;29;20232;-85
2021/12/29 03:43:32;;;;;;;19.17;9.77;;;;;;;8.14;100.00;98673.13;4930934;29;20180;-85
2021/12/29 03:46:00;;;;;;;23.20;10.40;;;;;;;8.30;100.00;98693.16;4922619;29;20185;-87
2021/12/29 03:48:27;;;;;;;21.40;10.83;;;;;;;8.33;100.00;98693.31;4922964;29;20186;-87
2021/12/29 03:50:57;;;;;;;20.73;9.57;;;;;;;8.22;100.00;98685.28;4939265;29;20185;-86
2021/12/29 03:53:23;;;;;;;20.97;10.73;;;;;;;7.43;100.00;98570.25;4945494;29;20219;-86
2021/12/29 03:55:50;;;;;;;21.13;9.40;;;;;;;7.48;100.00;98604.03;4925097;29;20193;-86
2021/12/29 03:58:24;;;;;;;19.83;9.90;;;;;;;8.12;100.00;98683.19;4940034;29;20176;-88
2021/12/29 04:00:55;;;;;;;21.53;9.53;;;;;;;7.78;100.00;98613.66;4939083;29;20285;-87
2021/12/29 04:03:22;;;;;;;18.07;8.97;;;;;;;7.30;100.00;98560.44;4922332;29;20181;-87
2021/12/29 04:05:48;;;;;;;17.53;8.63;;;;;;;6.92;100.00;98512.66;4922460;29;20220;-86
2021/12/29 04:08:15;;;;;;;17.53;8.40;;;;;;;7.94;100.00;98677.34;4906386;29;20181;-85
2021/12/29 04:10:40;;;;;;;20.70;9.70;;;;;;;6.06;100.00;98358.84;4939488;29;20168;-86
2021/12/29 04:13:06;;;;;;;19.47;8.80;;;;;;;7.30;100.00;98565.47;4937760;29;20209;-86
2021/12/29 04:15:33;;;;;;;19.20;8.40;;;;;;;6.43;100.00;98445.09;4955576;29;20166;-85
2021/12/29 04:18:03;;;;;;;16.30;8.27;;;;;;;6.72;100.00;98474.06;4938108;29;20569;-86
2021/12/29 04:23:17;;;;;;;21.73;9.47;;;;;;;6.77;100.00;98486.81;4939258;29;20565;-86
2021/12/29 04:25:48;;;;;;;19.90;8.80;;;;;;;6.91;100.00;98484.09;4923759;29;20172;-86
2021/12/29 04:28:20;;;;;;;20.30;9.23;;;;;;;5.94;100.00;98318.09;4932739;29;20185;-85
2021/12/29 04:30:52;;;;;;;19.10;9.40;;;;;;;8.00;100.00;98689.34;4915749;29;20567;-86
2021/12/29 04:33:20;;;;;;;19.13;8.47;;;;;;;8.09;100.00;98683.03;4922363;29;20205;-87
2021/12/29 04:35:46;;;;;;;18.70;8.47;;;;;;;5.62;100.00;98310.78;4937564;29;20280;-87
2021/12/29 04:38:12;;;;;;;21.00;9.37;;;;;;;5.27;100.00;98246.44;4938133;29;20165;-87
2021/12/29 04:40:39;;;;;;;18.33;9.13;;;;;;;6.64;100.00;98454.38;4938373;29;20224;-87
2021/12/29 04:43:06;;;;;;;18.17;9.33;;;;;;;7.94;100.00;98711.78;4921352;29;20253;-88
2021/12/29 04:45:32;;;;;;;19.83;9.97;;;;;;;6.98;100.00;98513.75;4937301;29;20177;-86
2021/12/29 04:47:59;;;;;;;22.67;12.57;;;;;;;7.83;100.00;98657.56;4939380;29;20276;-89
2021/12/29 04:50:30;;;;;;;18.27;9.10;;;;;;;7.90;100.00;98662.03;4922112;29;20188;-87
2021/12/29 04:53:01;;;;;;;42.23;17.43;;;;;;;6.78;100.00;98464.25;4906494;29;20217;-86
2021/12/29 04:55:29;;;;;;;53.57;22.50;;;;;;;6.91;100.00;98501.72;4921316;29;20196;-85
2021/12/29 04:57:56;;;;;;;151.33;48.60;;;;;;;4.71;100.00;98105.97;4937810;29;20181;-86
2021/12/29 05:00:26;;;;;;;255.87;63.30;;;;;;;7.94;100.00;98662.22;4938670;29;20180;-87
2021/12/29 05:02:53;;;;;;;46.70;16.67;;;;;;;7.42;100.00;98590.28;4921734;29;20177;-87
2021/12/29 05:10:42;;;;;;;20.37;10.83;;;;;;;7.09;100.00;98565.41;4938203;29;20220;-87
2021/12/29 05:13:08;;;;;;;19.47;10.67;;;;;;;7.34;100.00;98589.97;4937815;29;20208;-86
2021/12/29 05:15:34;;;;;;;20.40;10.37;;;;;;;7.67;100.00;98651.84;4920721;29;20643;-86
2021/12/29 05:18:01;;;;;;;21.90;11.50;;;;;;;5.89;100.00;98353.06;4939257;29;20177;-87
2021/12/29 05:20:28;;;;;;;21.50;11.60;;;;;;;7.74;100.00;98658.03;4937307;29;20173;-84
2021/12/29 05:22:58;;;;;;;24.53;12.17;;;;;;;7.86;100.00;98653.50;4937692;29;20170;-84
2021/12/29 05:25:23;;;;;;;24.17;13.47;;;;;;;5.55;100.00;98277.00;4938391;29;20180;-83
2021/12/29 05:27:49;;;;;;;24.67;13.73;;;;;;;7.87;100.00;98646.78;4937541;29;20170;-86
2021/12/29 05:30:17;;;;;;;21.83;12.27;;;;;;;6.02;100.00;98329.34;4937231;29;20168;-86
2021/12/29 05:32:43;;;;;;;20.00;10.47;;;;;;;7.34;100.00;98594.16;4936320;29;20213;-85
2021/12/29 05:35:09;;;;;;;20.77;10.73;;;;;;;7.68;100.00;98637.63;4920745;29;20239;-86
2021/12/29 05:37:35;;;;;;;19.00;10.07;;;;;;;5.56;100.00;98295.44;4905412;29;20219;-86
2021/12/29 05:40:02;;;;;;;21.73;9.77;;;;;;;7.52;100.00;98628.56;4938037;29;20740;-85
2021/12/29 05:42:28;;;;;;;19.40;10.87;;;;;;;7.55;100.00;98616.06;4929366;29;20185;-86
2021/12/29 05:44:53;;;;;;;19.90;9.70;;;;;;;5.46;100.00;98289.16;4940826;29;20183;-87
2021/12/29 05:47:18;;;;;;;20.23;10.13;;;;;;;6.46;100.00;98419.25;4919784;29;20184;-85
2021/12/29 05:49:44;;;;;;;18.93;9.40;;;;;;;7.54;100.00;98606.81;4919428;29;20181;-86
2021/12/29 05:52:10;;;;;;;48.67;25.07;;;;;;;5.82;100.00;98330.94;4937107;29;20189;-85
2021/12/29 05:54:36;;;;;;;22.83;10.20;;;;;;;7.62;100.00;98619.72;4904405;29;20185;-86
2021/12/29 05:57:01;;;;;;;23.57;11.00;;;;;;;6.52;100.00;98420.38;4936613;29;20195;-86
2021/12/29 05:59:27;;;;;;;19.33;9.73;;;;;;;4.54;100.00;98135.25;4920020;29;20174;-86
2021/12/29 06:01:52;;;;;;;21.17;10.23;;;;;;;5.06;100.00;98217.84;4936955;29;20200;-85
2021/12/29 06:04:17;;;;;;;21.63;10.40;;;;;;;6.13;100.00;98400.16;4937035;29;20643;-86
2021/12/29 06:06:43;;;;;;;79.30;41.00;;;;;;;7.10;100.00;98568.78;4920317;29;20582;-87
2021/12/29 06:09:08;;;;;;;24.77;11.30;;;;;;;5.64;100.00;98319.22;4936238;29;20618;-88
2021/12/29 06:11:34;;;;;;;30.70;15.80;;;;;;;7.43;100.00;98639.88;4919998;29;20216;-86
2021/12/29 06:13:59;;;;;;;37.40;19.07;;;;;;;5.59;100.00;98321.53;4920041;29;20184;-87
2021/12/29 06:16:27;;;;;;;34.97;18.97;;;;;;;6.74;100.00;98501.75;4920225;29;20170;-86
2021/12/29 06:18:53;;;;;;;34.17;17.93;;;;;;;5.53;100.00;98282.72;4937253;29;20189;-86
2021/12/29 06:21:19;;;;;;;27.57;15.43;;;;;;;4.91;100.00;98175.41;4936724;29;20536;-86
2021/12/29 06:23:46;;;;;;;24.10;12.53;;;;;;;7.51;100.00;98638.53;4919800;29;20174;-85
2021/12/29 06:26:12;;;;;;;26.57;14.53;;;;;;;5.66;100.00;98333.56;4919780;29;20591;-86
2021/12/29 06:28:40;;;;;;;30.20;14.80;;;;;;;7.43;100.00;98592.91;4937126;29;20641;-86
2021/12/29 06:31:06;;;;;;;24.93;12.03;;;;;;;6.53;100.00;98476.56;4936498;29;20244;-86
2021/12/29 06:33:32;;;;;;;24.30;12.27;;;;;;;7.60;100.00;98649.00;4937349;29;20197;-87
2021/12/29 06:35:57;;;;;;;28.63;13.73;;;;;;;6.04;100.00;98408.16;4936626;29;20193;-86
2021/12/29 06:38:23;;;;;;;19.10;9.60;;;;;;;7.70;100.00;98649.47;4938086;29;20170;-87
2021/12/29 06:40:49;;;;;;;19.73;10.40;;;;;;;7.60;100.00;98654.91;4921542;29;20287;-88
2021/12/29 06:43:14;;;;;;;22.10;10.80;;;;;;;6.14;100.00;98410.28;4935226;29;20200;-87
2021/12/29 06:45:40;;;;;;;21.13;10.37;;;;;;;6.83;100.00;98560.03;4936734;29;20169;-87
2021/12/29 06:48:06;;;;;;;23.93;11.20;;;;;;;7.59;100.00;98665.78;4936985;29;20191;-87
2021/12/29 06:50:31;;;;;;;22.80;11.00;;;;;;;6.05;100.00;98398.97;4936852;29;20192;-87
2021/12/29 06:52:57;;;;;;;21.43;11.20;;;;;;;7.64;100.00;98671.88;4936202;29;20208;-87
2021/12/29 06:55:24;;;;;;;19.70;10.47;;;;;;;6.15;100.00;98401.97;4919091;29;20646;-87
2021/12/29 06:57:51;;;;;;;20.33;10.83;;;;;;;7.95;100.00;98686.66;4920135;29;20605;-86
2021/12/29 07:00:16;;;;;;;22.77;11.60;;;;;;;7.12;100.00;98549.56;4908787;29;20196;-87
2021/12/29 07:02:42;;;;;;;21.80;11.03;;;;;;;7.90;100.00;98689.75;4949153;29;20161;-85
2021/12/29 07:05:09;;;;;;;24.30;11.77;;;;;;;6.60;100.00;98465.97;4941905;29;20189;-86
2021/12/29 07:07:35;;;;;;;24.20;12.17;;;;;;;7.70;100.00;98696.47;4936889;29;20196;-87
2021/12/29 07:10:04;;;;;;;23.23;12.63;;;;;;;7.70;100.00;98682.22;4935716;29;20626;-87
2021/12/29 07:12:29;;;;;;;25.43;13.10;;;;;;;7.27;100.00;98627.41;4936206;29;20677;-86
2021/12/29 07:14:55;;;;;;;27.80;13.63;;;;;;;7.32;100.00;98599.13;4919678;29;20177;-87
2021/12/29 07:17:20;;;;;;;28.20;14.30;;;;;;;5.30;100.00;98261.66;4922286;29;20184;-86
2021/12/29 07:19:47;;;;;;;24.53;12.90;;;;;;;7.13;100.00;98533.69;4922861;29;20196;-86
2021/12/29 07:22:12;;;;;;;25.80;13.07;;;;;;;7.90;100.00;98649.44;4921861;29;20177;-86
2021/12/29 07:24:38;;;;;;;25.07;12.93;;;;;;;8.16;100.00;98705.19;4937673;29;20220;-87
2021/12/29 07:27:06;;;;;;;25.03;13.20;;;;;;;7.72;100.00;98640.31;4935625;29;20281;-87
2021/12/29 07:29:31;;;;;;;27.50;13.33;;;;;;;5.78;100.00;98306.50;4930854;29;20181;-86
2021/12/29 07:31:58;;;;;;;28.60;14.17;;;;;;;6.52;100.00;98422.03;4949399;29;20196;-87
2021/12/29 07:34:24;;;;;;;29.20;14.43;;;;;;;6.96;100.00;98494.34;4943214;29;20169;-87
2021/12/29 07:36:51;;;;;;;40.63;21.33;;;;;;;7.99;100.00;98692.69;4923111;29;20173;-88
2021/12/29 07:39:17;;;;;;;43.80;22.50;;;;;;;7.65;100.00;98650.94;4893096;29;20216;-87
2021/12/29 07:41:44;;;;;;;43.10;21.73;;;;;;;7.87;100.00;98687.09;4942218;29;20698;-87
2021/12/29 07:44:12;;;;;;;30.63;15.90;;;;;;;7.51;100.00;98618.41;4921394;29;20185;-87
2021/12/29 07:46:44;;;;;;;28.67;13.47;;;;;;;7.88;100.00;98691.38;4938234;29;20549;-86
2021/12/29 07:49:10;;;;;;;39.50;17.80;;;;;;;6.46;100.00;98445.25;4936252;29;20186;-86
2021/12/29 07:51:35;;;;;;;47.63;22.20;;;;;;;7.30;100.00;98655.25;4937964;29;20284;-88
2021/12/29 07:54:02;;;;;;;47.10;20.87;;;;;;;7.68;100.00;98686.34;4927954;29;20220;-87
2021/12/29 07:56:31;;;;;;;44.80;18.77;;;;;;;6.41;100.00;98473.47;4943060;29;20253;-87
2021/12/29 07:58:56;;;;;;;37.93;17.27;;;;;;;7.81;100.00;98665.03;4926798;29;20177;-87
2021/12/29 08:01:23;;;;;;;38.20;16.87;;;;;;;7.66;100.00;98616.53;4945532;29;20276;-86
2021/12/29 08:03:49;;;;;;;36.90;18.27;;;;;;;5.71;100.00;98296.13;4945821;29;20643;-87
2021/12/29 08:06:18;;;;;;;43.00;20.77;;;;;;;8.12;100.00;98707.50;4945842;29;20213;-86
2021/12/29 08:08:44;;;;;;;39.13;18.10;;;;;;;7.63;100.00;98624.84;4943315;29;20272;-87
2021/12/29 08:11:09;;;;;;;33.00;14.87;;;;;;;8.12;100.00;98705.00;4945470;29;20185;-86
2021/12/29 08:13:36;;;;;;;38.37;17.00;;;;;;;5.27;100.00;98266.53;4931872;29;20213;-87
2021/12/29 08:16:04;;;;;;;57.87;25.50;;;;;;;6.58;100.00;98487.66;4932628;29;20194;-84
2021/12/29 08:18:29;;;;;;;45.43;21.97;;;;;;;8.21;100.00;98701.19;4948940;29;20185;-87
2021/12/29 08:20:55;;;;;;;49.00;23.53;;;;;;;8.37;100.00;98696.81;4932263;29;20185;-88
2021/12/29 08:23:21;;;;;;;36.93;17.47;;;;;;;8.02;100.00;98648.28;4952011;29;20204;-88
2021/12/29 08:25:48;;;;;;;45.23;22.20;;;;;;;8.42;100.00;98701.25;4937149;29;20197;-86
2021/12/29 08:28:14;;;;;;;44.13;22.27;;;;;;;6.14;100.00;98311.44;4937990;29;20174;-87
2021/12/29 08:30:40;;;;;;;30.80;16.17;;;;;;;8.36;100.00;98683.34;4948471;29;20248;-85
2021/12/29 08:33:07;;;;;;;38.37;17.27;;;;;;;8.48;100.00;98709.06;4929207;29;20238;-86
2021/12/29 08:35:34;;;;;;;35.20;16.17;;;;;;;8.18;100.00;98660.75;4918992;29;20252;-86
2021/12/29 08:38:00;;;;;;;32.27;15.33;;;;;;;7.95;100.00;98646.31;4913726;29;20204;-87
2021/12/29 08:40:26;;;;;;;33.97;16.20;;;;;;;7.91;100.00;98636.91;4909744;29;20320;-87
2021/12/29 08:42:54;;;;;;;31.83;15.43;;;;;;;8.23;100.00;98699.59;4888339;29;20195;-87
2021/12/29 08:45:22;;;;;;;39.27;17.70;;;;;;;7.89;100.00;98647.72;4874375;29;20195;-86
2021/12/29 08:47:47;;;;;;;41.23;19.83;;;;;;;8.18;100.00;98685.97;4889466;29;20195;-86
2021/12/29 08:50:16;;;;;;;34.63;17.77;;;;;;;5.87;100.00;98293.53;4887437;29;20181;-87
2021/12/29 08:52:42;;;;;;;35.60;16.53;;;;;;;5.78;100.00;98266.34;4888863;29;20615;-86
2021/12/29 08:55:11;;;;;;;35.93;17.17;;;;;;;6.68;100.00;98393.34;4889760;29;20199;-87
2021/12/29 08:57:38;;;;;;;39.13;17.40;;;;;;;7.91;100.00;98596.59;4878932;29;20245;-88
2021/12/29 09:00:07;;;;;;;37.27;18.73;;;;;;;8.10;100.00;98613.34;4891864;29;20199;-87
2021/12/29 09:02:33;;;;;;;51.37;26.00;;;;;;;7.62;100.00;98560.13;4890153;29;20333;-87
2021/12/29 09:04:58;;;;;;;46.40;22.30;;;;;;;7.88;100.00;98588.06;4901416;29;20225;-88
2021/12/29 09:07:23;;;;;;;113.27;46.63;;;;;;;8.26;100.00;98692.19;4914862;29;20217;-86
2021/12/29 09:09:49;;;;;;;80.10;32.90;;;;;;;7.04;100.00;98470.38;4914060;29;20194;-86
2021/12/29 09:12:14;;;;;;;73.40;40.60;;;;;;;8.18;100.00;98672.47;4913978;29;20718;-88
2021/12/29 09:14:40;;;;;;;77.17;32.87;;;;;;;7.84;100.00;98596.28;4904277;29;20787;-86
2021/12/29 09:17:05;;;;;;;604.40;323.17;;;;;;;6.73;100.00;98415.38;4931874;29;20174;-88
2021/12/29 09:19:34;;;;;;;63.60;29.70;;;;;;;7.99;100.00;98589.34;4936718;29;20236;-89
2021/12/29 09:22:00;;;;;;;40.53;20.83;;;;;;;7.57;100.00;98503.69;4959823;29;20204;-88
2021/12/29 09:24:25;;;;;;;41.07;20.83;;;;;;;6.45;100.00;98301.91;4946528;29;20936;-87
2021/12/29 09:26:51;;;;;;;38.43;20.53;;;;;;;6.74;100.00;98346.72;4940840;29;20200;-88
2021/12/29 09:29:17;;;;;;;80.60;41.57;;;;;;;8.54;100.00;98658.84;4964442;29;20172;-87
2021/12/29 09:31:43;;;;;;;37.47;18.23;;;;;;;8.20;100.00;98570.03;4947318;29;20205;-88
2021/12/29 09:34:08;;;;;;;30.53;15.63;;;;;;;8.55;100.00;98654.66;4944182;29;20197;-88
2021/12/29 09:36:34;;;;;;;43.27;22.47;;;;;;;6.84;100.00;98380.66;4946561;29;20201;-86
2021/12/29 09:39:00;;;;;;;54.40;25.17;;;;;;;6.40;100.00;98274.06;4945749;29;20196;-87
2021/12/29 09:41:26;;;;;;;45.33;21.13;;;;;;;8.57;100.00;98640.47;4940155;29;20224;-89
2021/12/29 09:43:52;;;;;;;40.17;21.33;;;;;;;8.47;100.00;98636.72;4934551;29;20200;-90
2021/12/29 09:46:18;;;;;;;48.37;23.63;;;;;;;7.71;100.00;98542.03;4933514;29;20205;-86
2021/12/29 09:48:45;;;;;;;54.77;26.47;;;;;;;7.00;100.00;98390.56;4933162;29;20217;-86
2021/12/29 09:51:11;;;;;;;95.53;43.73;;;;;;;6.71;100.00;98326.47;4925185;29;20276;-87
2021/12/29 09:53:38;;;;;;;74.47;34.53;;;;;;;7.11;100.00;98427.09;4950222;29;20204;-87
2021/12/29 09:56:05;;;;;;;62.23;28.83;;;;;;;6.60;100.00;98306.69;4924845;29;20219;-86
2021/12/29 09:58:30;;;;;;;45.73;25.03;;;;;;;6.77;100.00;98335.91;4930727;29;20309;-89
2021/12/29 10:00:59;;;;;;;45.60;24.03;;;;;;;7.99;100.00;98542.34;4937266;29;20284;-87
2021/12/29 10:03:27;;;;;;;52.00;25.20;;;;;;;6.44;100.00;98243.22;4921841;29;20229;-86
2021/12/29 10:05:55;;;;;;;47.03;24.67;;;;;;;6.99;100.00;98283.16;4935030;29;20852;-86
2021/12/29 10:08:30;;;;;;;40.87;22.43;;;;;;;8.89;100.00;98607.22;4934122;29;20193;-86
2021/12/29 10:11:02;;;;;;;53.30;26.70;;;;;;;9.00;100.00;98598.38;4937789;29;20209;-88
2021/12/29 10:13:31;;;;;;;52.43;25.97;;;;;;;9.10;100.00;98597.91;4959879;29;20232;-86
2021/12/29 10:16:13;;;;;;;44.57;22.63;;;;;;;9.24;100.00;98601.78;4961849;29;20243;-85
2021/12/29 10:18:43;;;;;;;46.13;21.53;;;;;;;9.25;100.00;98587.50;4947994;29;20717;-88
2021/12/29 10:21:22;;;;;;;63.67;30.80;;;;;;;8.80;100.00;98503.41;4936594;29;20331;-89
2021/12/29 10:23:50;;;;;;;54.63;26.70;;;;;;;7.12;100.00;98251.00;4920376;29;20195;-87
2021/12/29 10:26:19;;;;;;;52.00;23.60;;;;;;;7.55;100.00;98333.19;4933577;29;20245;-86
2021/12/29 10:28:48;;;;;;;49.73;26.73;;;;;;;9.08;100.00;98579.34;4934962;29;20209;-88
2021/12/29 10:31:23;;;;;;;35.47;18.80;;;;;;;7.99;100.00;98446.59;4956330;29;20192;-87
2021/12/29 10:33:55;;;;;;;42.20;20.27;;;;;;;8.87;100.00;98578.56;4958790;28;20192;-85
2021/12/29 10:36:25;;;;;;;32.87;16.73;;;;;;;8.65;100.00;98579.41;4966219;28;20185;-85
2021/12/29 10:39:06;;;;;;;44.03;21.80;;;;;;;6.79;100.00;98242.13;4942261;29;20246;-86
2021/12/29 10:41:43;;;;;;;39.97;19.33;;;;;;;7.19;100.00;98327.59;4936184;29;20232;-87
2021/12/29 10:44:09;;;;;;;32.23;16.43;;;;;;;7.76;100.00;98479.22;4956535;29;20189;-88
2021/12/29 10:46:34;;;;;;;35.80;17.80;;;;;;;6.84;100.00;98315.25;4941458;29;20195;-88
2021/12/29 10:49:04;;;;;;;39.73;20.37;;;;;;;6.49;100.00;98221.66;4938490;29;20279;-87
2021/12/29 10:51:33;;;;;;;71.53;31.30;;;;;;;8.61;100.00;98567.47;4938473;29;20256;-90
2021/12/29 10:54:11;;;;;;;47.00;24.13;;;;;;;8.53;100.00;98576.44;4938285;29;20185;-89
2021/12/29 10:56:40;;;;;;;37.67;18.90;;;;;;;8.35;100.00;98573.19;4937774;29;20194;-87
2021/12/29 10:59:23;;;;;;;38.97;18.07;;;;;;;7.82;100.00;98499.63;4951182;29;20236;-89
2021/12/29 11:01:53;;;;;;;60.63;27.73;;;;;;;8.35;100.00;98565.63;4946808;29;20203;-86
2021/12/29 11:04:38;;;;;;;58.50;27.83;;;;;;;6.12;100.00;98240.19;4856677;29;20243;-87
2021/12/29 11:07:05;;;;;;;52.07;23.73;;;;;;;6.89;100.00;98337.28;4855746;29;20244;-88
2021/12/29 11:09:33;;;;;;;48.77;24.10;;;;;;;6.26;100.00;98249.16;4869494;29;20349;-87
2021/12/29 11:12:01;;;;;;;61.00;28.10;;;;;;;7.82;100.00;98487.03;4854912;29;20215;-87
2021/12/29 11:14:32;;;;;;;64.80;28.10;;;;;;;6.54;100.00;98255.38;4873499;29;20184;-86
2021/12/29 11:17:04;;;;;;;49.23;23.70;;;;;;;8.30;100.00;98541.88;4869326;29;20240;-88
2021/12/29 11:19:30;;;;;;;49.17;23.10;;;;;;;8.03;100.00;98491.25;4866719;29;20276;-86
2021/12/29 11:22:24;;;;;;;52.03;23.40;;;;;;;7.48;100.00;98407.63;4866300;29;20191;-86
2021/12/29 11:24:56;;;;;;;74.60;33.83;;;;;;;6.91;100.00;98290.41;4850275;29;20204;-86
2021/12/29 11:27:22;;;;;;;128.70;70.33;;;;;;;6.64;100.00;98324.50;4867059;29;20198;-90